sensor_id;sensor_type;location;lat;lon;timestamp;pressure;altitude;pressure_sealevel;temperature;humidity
75513;BME280;64090;49.770;18.760;2023-02-15T00:02:53;99250.29;;;-0.98;83.90
75513;BME280;64090;49.770;18.760;2023-02-15T00:06:00;99249.11;;;-1.04;83.97
75513;BME280;64090;49.770;18.760;2023-02-15T00:09:04;99248.02;;;-1.08;84.48
75513;BME280;64090;49.770;18.760;2023-02-15T00:12:09;99247.74;;;-1.13;84.31
75513;BME280;64090;49.770;18.760;2023-02-15T00:15:13;99246.67;;;-1.18;84.20
75513;BME280;64090;49.770;18.760;2023-02-15T00:18:18;99245.78;;;-1.20;85.62
75513;BME280;64090;49.770;18.760;2023-02-15T00:21:21;99243.41;;;-1.24;87.16
75513;BME280;64090;49.770;18.760;2023-02-15T00:24:28;99241.80;;;-1.33;85.41
75513;BME280;64090;49.770;18.760;2023-02-15T00:27:33;99238.60;;;-1.40;85.18
75513;BME280;64090;49.770;18.760;2023-02-15T00:30:41;99238.40;;;-1.48;85.16
75513;BME280;64090;49.770;18.760;2023-02-15T00:33:44;99230.57;;;-1.57;85.00
75513;BME280;64090;49.770;18.760;2023-02-15T00:36:48;99229.77;;;-1.64;85.08
75513;BME280;64090;49.770;18.760;2023-02-15T00:39:51;99231.35;;;-1.70;85.00
75513;BME280;64090;49.770;18.760;2023-02-15T00:42:55;99230.81;;;-1.76;85.09
75513;BME280;64090;49.770;18.760;2023-02-15T00:45:58;99227.48;;;-1.81;85.31
75513;BME280;64090;49.770;18.760;2023-02-15T00:49:03;99221.61;;;-1.85;85.14
75513;BME280;64090;49.770;18.760;2023-02-15T00:52:07;99217.80;;;-1.88;85.18
75513;BME280;64090;49.770;18.760;2023-02-15T00:55:10;99215.11;;;-1.92;85.20
75513;BME280;64090;49.770;18.760;2023-02-15T00:58:16;99214.67;;;-1.97;85.32
75513;BME280;64090;49.770;18.760;2023-02-15T01:01:20;99207.65;;;-2.02;85.57
75513;BME280;64090;49.770;18.760;2023-02-15T01:04:24;99209.23;;;-2.05;87.23
75513;BME280;64090;49.770;18.760;2023-02-15T01:07:28;99209.17;;;-2.07;87.93
75513;BME280;64090;49.770;18.760;2023-02-15T01:10:34;99204.95;;;-2.09;86.64
75513;BME280;64090;49.770;18.760;2023-02-15T01:13:38;99207.51;;;-2.11;86.35
75513;BME280;64090;49.770;18.760;2023-02-15T01:16:44;99210.67;;;-2.14;86.25
75513;BME280;64090;49.770;18.760;2023-02-15T01:19:48;99210.15;;;-2.18;86.20
75513;BME280;64090;49.770;18.760;2023-02-15T01:22:52;99211.86;;;-2.20;86.13
75513;BME280;64090;49.770;18.760;2023-02-15T01:26:01;99209.00;;;-2.22;86.33
75513;BME280;64090;49.770;18.760;2023-02-15T01:29:07;99207.84;;;-2.23;86.92
75513;BME280;64090;49.770;18.760;2023-02-15T01:32:12;99201.08;;;-2.23;86.93
75513;BME280;64090;49.770;18.760;2023-02-15T01:35:16;99198.59;;;-2.22;87.22
75513;BME280;64090;49.770;18.760;2023-02-15T01:38:21;99192.42;;;-2.23;86.55
75513;BME280;64090;49.770;18.760;2023-02-15T01:41:25;99191.14;;;-2.22;86.26
75513;BME280;64090;49.770;18.760;2023-02-15T01:44:57;99188.61;;;-2.24;86.68
75513;BME280;64090;49.770;18.760;2023-02-15T01:51:08;99180.05;;;-2.26;86.64
75513;BME280;64090;49.770;18.760;2023-02-15T01:54:32;99176.04;;;-2.28;86.82
75513;BME280;64090;49.770;18.760;2023-02-15T01:57:40;99172.88;;;-2.31;86.51
75513;BME280;64090;49.770;18.760;2023-02-15T02:00:46;99173.31;;;-2.32;86.71
75513;BME280;64090;49.770;18.760;2023-02-15T02:04:13;99171.81;;;-2.33;86.63
75513;BME280;64090;49.770;18.760;2023-02-15T02:07:23;99164.70;;;-2.36;86.69
75513;BME280;64090;49.770;18.760;2023-02-15T02:10:27;99152.68;;;-2.39;86.83
75513;BME280;64090;49.770;18.760;2023-02-15T02:13:33;99151.41;;;-2.41;86.81
75513;BME280;64090;49.770;18.760;2023-02-15T02:17:00;99143.50;;;-2.42;86.78
75513;BME280;64090;49.770;18.760;2023-02-15T02:20:17;99135.63;;;-2.44;86.73
75513;BME280;64090;49.770;18.760;2023-02-15T02:23:35;99131.69;;;-2.45;86.70
75513;BME280;64090;49.770;18.760;2023-02-15T02:30:11;99123.71;;;-2.51;86.72
75513;BME280;64090;49.770;18.760;2023-02-15T02:36:59;99126.09;;;-2.59;86.91
75513;BME280;64090;49.770;18.760;2023-02-15T02:43:54;99123.17;;;-2.69;86.85
75513;BME280;64090;49.770;18.760;2023-02-15T02:47:12;99114.44;;;-2.74;86.84
75513;BME280;64090;49.770;18.760;2023-02-15T02:50:25;99113.98;;;-2.78;87.08
75513;BME280;64090;49.770;18.760;2023-02-15T02:53:30;99104.84;;;-2.82;87.26
75513;BME280;64090;49.770;18.760;2023-02-15T02:56:44;99105.34;;;-2.88;87.17
75513;BME280;64090;49.770;18.760;2023-02-15T02:59:52;99098.89;;;-2.93;87.06
75513;BME280;64090;49.770;18.760;2023-02-15T03:03:04;99097.11;;;-2.99;87.31
75513;BME280;64090;49.770;18.760;2023-02-15T03:06:21;99090.80;;;-3.04;86.95
75513;BME280;64090;49.770;18.760;2023-02-15T03:12:46;99088.31;;;-3.06;87.18
75513;BME280;64090;49.770;18.760;2023-02-15T03:16:10;99087.63;;;-3.06;87.07
75513;BME280;64090;49.770;18.760;2023-02-15T03:19:35;99083.98;;;-3.03;87.34
75513;BME280;64090;49.770;18.760;2023-02-15T03:22:50;99079.16;;;-2.97;88.01
75513;BME280;64090;49.770;18.760;2023-02-15T03:26:05;99080.48;;;-2.87;87.98
75513;BME280;64090;49.770;18.760;2023-02-15T03:29:10;99075.42;;;-2.80;89.89
75513;BME280;64090;49.770;18.760;2023-02-15T03:32:15;99076.50;;;-2.75;90.60
75513;BME280;64090;49.770;18.760;2023-02-15T03:35:23;99072.64;;;-2.71;89.51
75513;BME280;64090;49.770;18.760;2023-02-15T03:38:45;99074.20;;;-2.71;88.55
75513;BME280;64090;49.770;18.760;2023-02-15T03:42:12;99071.02;;;-2.73;88.38
75513;BME280;64090;49.770;18.760;2023-02-15T03:45:24;99072.98;;;-2.74;88.21
75513;BME280;64090;49.770;18.760;2023-02-15T03:48:45;99074.90;;;-2.77;88.07
75513;BME280;64090;49.770;18.760;2023-02-15T03:51:55;99075.05;;;-2.83;88.15
75513;BME280;64090;49.770;18.760;2023-02-15T03:55:02;99073.51;;;-2.89;87.99
75513;BME280;64090;49.770;18.760;2023-02-15T03:58:08;99076.55;;;-2.94;88.06
75513;BME280;64090;49.770;18.760;2023-02-15T04:01:36;99085.66;;;-2.99;87.83
75513;BME280;64090;49.770;18.760;2023-02-15T04:04:47;99082.92;;;-3.02;87.93
75513;BME280;64090;49.770;18.760;2023-02-15T04:07:51;99086.81;;;-3.03;87.84
75513;BME280;64090;49.770;18.760;2023-02-15T04:10:57;99082.63;;;-3.03;89.69
75513;BME280;64090;49.770;18.760;2023-02-15T04:14:07;99088.34;;;-2.94;91.66
75513;BME280;64090;49.770;18.760;2023-02-15T04:17:37;99087.10;;;-2.84;92.00
75513;BME280;64090;49.770;18.760;2023-02-15T04:21:01;99083.19;;;-2.70;90.75
75513;BME280;64090;49.770;18.760;2023-02-15T04:24:41;99085.45;;;-2.55;92.83
75513;BME280;64090;49.770;18.760;2023-02-15T04:28:07;99086.37;;;-2.51;93.13
75513;BME280;64090;49.770;18.760;2023-02-15T04:31:19;99095.21;;;-2.48;92.44
75513;BME280;64090;49.770;18.760;2023-02-15T04:34:22;99096.39;;;-2.47;90.87
75513;BME280;64090;49.770;18.760;2023-02-15T04:37:26;99097.41;;;-2.46;90.33
75513;BME280;64090;49.770;18.760;2023-02-15T04:40:39;99104.52;;;-2.46;90.23
75513;BME280;64090;49.770;18.760;2023-02-15T04:43:43;99104.44;;;-2.45;90.85
75513;BME280;64090;49.770;18.760;2023-02-15T04:46:46;99103.40;;;-2.45;90.19
75513;BME280;64090;49.770;18.760;2023-02-15T04:49:55;99101.33;;;-2.48;89.69
75513;BME280;64090;49.770;18.760;2023-02-15T04:53:21;99100.59;;;-2.53;89.23
75513;BME280;64090;49.770;18.760;2023-02-15T04:56:26;99103.84;;;-2.62;89.39
75513;BME280;64090;49.770;18.760;2023-02-15T04:59:51;99101.35;;;-2.70;89.22
75513;BME280;64090;49.770;18.760;2023-02-15T05:03:17;99099.02;;;-2.77;89.30
75513;BME280;64090;49.770;18.760;2023-02-15T05:07:04;99101.52;;;-2.88;89.10
75513;BME280;64090;49.770;18.760;2023-02-15T05:10:36;99105.84;;;-3.00;89.08
75513;BME280;64090;49.770;18.760;2023-02-15T05:13:40;99108.88;;;-3.08;89.42
75513;BME280;64090;49.770;18.760;2023-02-15T05:17:20;99112.16;;;-3.17;88.97
75513;BME280;64090;49.770;18.760;2023-02-15T05:24:24;99109.97;;;-3.31;89.24
75513;BME280;64090;49.770;18.760;2023-02-15T05:27:46;99111.81;;;-3.36;89.16
75513;BME280;64090;49.770;18.760;2023-02-15T05:31:14;99109.54;;;-3.39;89.63
75513;BME280;64090;49.770;18.760;2023-02-15T05:34:18;99106.59;;;-3.39;89.44
75513;BME280;64090;49.770;18.760;2023-02-15T05:37:21;99104.21;;;-3.37;89.25
75513;BME280;64090;49.770;18.760;2023-02-15T05:40:24;99110.84;;;-3.34;89.25
75513;BME280;64090;49.770;18.760;2023-02-15T05:43:27;99111.73;;;-3.32;89.15
75513;BME280;64090;49.770;18.760;2023-02-15T05:46:35;99112.27;;;-3.29;89.20
75513;BME280;64090;49.770;18.760;2023-02-15T05:49:55;99114.05;;;-3.30;89.14
75513;BME280;64090;49.770;18.760;2023-02-15T05:53:03;99107.98;;;-3.33;89.20
75513;BME280;64090;49.770;18.760;2023-02-15T05:56:16;99102.31;;;-3.34;88.88
75513;BME280;64090;49.770;18.760;2023-02-15T05:59:22;99100.64;;;-3.35;88.87
75513;BME280;64090;49.770;18.760;2023-02-15T06:03:13;99101.98;;;-3.34;89.07
75513;BME280;64090;49.770;18.760;2023-02-15T06:06:41;99102.41;;;-3.32;89.10
75513;BME280;64090;49.770;18.760;2023-02-15T06:09:44;99102.27;;;-3.30;89.44
75513;BME280;64090;49.770;18.760;2023-02-15T06:12:49;99103.17;;;-3.24;89.51
75513;BME280;64090;49.770;18.760;2023-02-15T06:15:56;99104.54;;;-3.17;89.38
75513;BME280;64090;49.770;18.760;2023-02-15T06:18:59;99106.23;;;-3.10;89.23
75513;BME280;64090;49.770;18.760;2023-02-15T06:22:04;99107.47;;;-3.01;89.15
75513;BME280;64090;49.770;18.760;2023-02-15T06:25:14;99109.94;;;-2.90;89.56
75513;BME280;64090;49.770;18.760;2023-02-15T06:28:18;99109.91;;;-2.77;89.66
75513;BME280;64090;49.770;18.760;2023-02-15T06:31:44;99108.27;;;-2.63;89.50
75513;BME280;64090;49.770;18.760;2023-02-15T06:35:09;99098.89;;;-2.45;89.43
75513;BME280;64090;49.770;18.760;2023-02-15T06:38:13;99096.40;;;-2.26;89.61
75513;BME280;64090;49.770;18.760;2023-02-15T06:41:37;99093.61;;;-2.08;89.59
75513;BME280;64090;49.770;18.760;2023-02-15T06:45:00;99090.56;;;-1.92;89.59
75513;BME280;64090;49.770;18.760;2023-02-15T06:48:06;99091.58;;;-1.72;89.60
75513;BME280;64090;49.770;18.760;2023-02-15T06:51:32;99093.21;;;-1.48;89.92
75513;BME280;64090;49.770;18.760;2023-02-15T06:54:37;99096.42;;;-1.27;89.69
75513;BME280;64090;49.770;18.760;2023-02-15T06:57:43;99093.21;;;-1.09;89.16
75513;BME280;64090;49.770;18.760;2023-02-15T07:00:53;99097.58;;;-0.93;88.46
75513;BME280;64090;49.770;18.760;2023-02-15T07:04:07;99102.92;;;-0.76;88.53
75513;BME280;64090;49.770;18.760;2023-02-15T07:07:12;99100.90;;;-0.64;88.06
75513;BME280;64090;49.770;18.760;2023-02-15T07:10:17;99100.44;;;-0.51;87.85
75513;BME280;64090;49.770;18.760;2023-02-15T07:13:22;99101.21;;;-0.36;88.05
75513;BME280;64090;49.770;18.760;2023-02-15T07:16:27;99100.27;;;-0.22;88.19
75513;BME280;64090;49.770;18.760;2023-02-15T07:19:33;99098.19;;;-0.07;87.61
75513;BME280;64090;49.770;18.760;2023-02-15T07:22:56;99094.52;;;0.08;87.54
75513;BME280;64090;49.770;18.760;2023-02-15T07:26:04;99098.90;;;0.23;87.46
75513;BME280;64090;49.770;18.760;2023-02-15T07:29:19;99097.08;;;0.37;86.92
75513;BME280;64090;49.770;18.760;2023-02-15T07:32:28;99101.67;;;0.49;86.89
75513;BME280;64090;49.770;18.760;2023-02-15T07:35:47;99102.02;;;0.61;86.57
75513;BME280;64090;49.770;18.760;2023-02-15T07:39:13;99098.60;;;0.77;86.17
75513;BME280;64090;49.770;18.760;2023-02-15T07:42:18;99094.72;;;0.88;86.28
75513;BME280;64090;49.770;18.760;2023-02-15T07:45:32;99094.42;;;0.97;85.92
75513;BME280;64090;49.770;18.760;2023-02-15T07:48:39;99093.47;;;1.03;85.27
75513;BME280;64090;49.770;18.760;2023-02-15T07:52:02;99092.73;;;1.08;85.59
75513;BME280;64090;49.770;18.760;2023-02-15T07:55:08;99092.67;;;1.14;85.53
75513;BME280;64090;49.770;18.760;2023-02-15T07:58:20;99093.43;;;1.18;85.63
75513;BME280;64090;49.770;18.760;2023-02-15T08:01:32;99096.81;;;1.22;84.42
75513;BME280;64090;49.770;18.760;2023-02-15T08:04:36;99094.52;;;1.26;84.80
75513;BME280;64090;49.770;18.760;2023-02-15T08:07:39;99088.85;;;1.33;84.62
75513;BME280;64090;49.770;18.760;2023-02-15T08:11:04;99082.45;;;1.39;84.91
75513;BME280;64090;49.770;18.760;2023-02-15T08:14:27;99076.70;;;1.48;84.98
75513;BME280;64090;49.770;18.760;2023-02-15T08:17:37;99074.56;;;1.56;84.39
75513;BME280;64090;49.770;18.760;2023-02-15T08:21:04;99076.59;;;1.71;84.60
75513;BME280;64090;49.770;18.760;2023-02-15T08:24:10;99080.25;;;1.82;84.04
75513;BME280;64090;49.770;18.760;2023-02-15T08:27:14;99082.13;;;1.87;83.92
75513;BME280;64090;49.770;18.760;2023-02-15T08:30:36;99080.75;;;1.89;81.80
75513;BME280;64090;49.770;18.760;2023-02-15T08:33:47;99074.22;;;1.93;83.06
75513;BME280;64090;49.770;18.760;2023-02-15T08:36:51;99077.50;;;2.05;83.08
75513;BME280;64090;49.770;18.760;2023-02-15T08:39:55;99075.55;;;2.12;83.32
75513;BME280;64090;49.770;18.760;2023-02-15T08:43:00;99072.17;;;2.19;83.70
75513;BME280;64090;49.770;18.760;2023-02-15T08:46:13;99072.48;;;2.27;82.84
75513;BME280;64090;49.770;18.760;2023-02-15T08:49:19;99070.58;;;2.40;83.30
75513;BME280;64090;49.770;18.760;2023-02-15T08:52:23;99069.15;;;2.54;83.56
75513;BME280;64090;49.770;18.760;2023-02-15T08:55:27;99059.31;;;2.61;82.12
75513;BME280;64090;49.770;18.760;2023-02-15T08:58:32;99057.17;;;2.70;82.65
75513;BME280;64090;49.770;18.760;2023-02-15T09:01:36;99050.52;;;2.79;82.34
75513;BME280;64090;49.770;18.760;2023-02-15T09:04:42;99047.64;;;2.93;83.10
75513;BME280;64090;49.770;18.760;2023-02-15T09:08:07;99049.20;;;3.04;81.50
75513;BME280;64090;49.770;18.760;2023-02-15T09:11:33;99044.41;;;3.13;80.61
75513;BME280;64090;49.770;18.760;2023-02-15T09:15:31;99037.48;;;3.27;81.98
75513;BME280;64090;49.770;18.760;2023-02-15T09:19:33;99037.70;;;3.41;81.72
75513;BME280;64090;49.770;18.760;2023-02-15T09:23:00;99031.41;;;3.48;80.55
75513;BME280;64090;49.770;18.760;2023-02-15T09:26:51;99030.61;;;3.49;80.93
75513;BME280;64090;49.770;18.760;2023-02-15T09:30:35;99032.85;;;3.62;80.85
75513;BME280;64090;49.770;18.760;2023-02-15T09:34:31;99036.05;;;3.74;80.68
75513;BME280;64090;49.770;18.760;2023-02-15T09:37:59;99032.23;;;3.84;80.19
75513;BME280;64090;49.770;18.760;2023-02-15T10:07:29;99004.05;;;4.34;77.16
75513;BME280;64090;49.770;18.760;2023-02-15T10:19:35;98988.59;;;4.50;77.51
75513;BME280;64090;49.770;18.760;2023-02-15T10:27:23;98987.09;;;4.51;77.07
75513;BME280;64090;49.770;18.760;2023-02-15T10:30:58;98986.96;;;4.57;76.91
75513;BME280;64090;49.770;18.760;2023-02-15T10:39:11;98987.77;;;4.63;75.31
75513;BME280;64090;49.770;18.760;2023-02-15T10:43:00;98979.80;;;4.72;76.06
75513;BME280;64090;49.770;18.760;2023-02-15T10:50:26;98975.42;;;4.88;74.46
75513;BME280;64090;49.770;18.760;2023-02-15T11:03:06;98962.11;;;5.30;76.36
75513;BME280;64090;49.770;18.760;2023-02-15T11:07:40;98954.16;;;5.45;76.02
75513;BME280;64090;49.770;18.760;2023-02-15T12:41:56;98859.66;;;7.33;70.11
75513;BME280;64090;49.770;18.760;2023-02-15T14:25:52;98780.07;;;7.73;67.78
75513;BME280;64090;49.770;18.760;2023-02-15T14:32:45;98779.41;;;7.73;67.33
75513;BME280;64090;49.770;18.760;2023-02-15T14:36:11;98775.29;;;7.65;67.18
75513;BME280;64090;49.770;18.760;2023-02-15T14:39:52;98775.27;;;7.57;67.50
75513;BME280;64090;49.770;18.760;2023-02-15T14:47:16;98769.63;;;7.47;66.81
75513;BME280;64090;49.770;18.760;2023-02-15T14:57:25;98772.02;;;7.17;68.59
75513;BME280;64090;49.770;18.760;2023-02-15T15:00:33;98767.94;;;7.08;68.78
75513;BME280;64090;49.770;18.760;2023-02-15T15:03:50;98770.48;;;6.97;68.88
75513;BME280;64090;49.770;18.760;2023-02-15T15:07:04;98770.06;;;6.82;69.26
75513;BME280;64090;49.770;18.760;2023-02-15T15:16:46;98770.44;;;6.43;70.81
75513;BME280;64090;49.770;18.760;2023-02-15T15:26:28;98761.56;;;6.05;72.16
75513;BME280;64090;49.770;18.760;2023-02-15T15:29:41;98763.34;;;5.96;72.59
75513;BME280;64090;49.770;18.760;2023-02-15T15:36:22;98760.34;;;5.74;73.54
75513;BME280;64090;49.770;18.760;2023-02-15T15:40:25;98759.30;;;5.63;73.85
75513;BME280;64090;49.770;18.760;2023-02-15T15:47:00;98749.78;;;5.38;74.17
75513;BME280;64090;49.770;18.760;2023-02-15T15:50:16;98749.34;;;5.24;74.44
75513;BME280;64090;49.770;18.760;2023-02-15T15:53:23;98749.73;;;5.10;74.78
75513;BME280;64090;49.770;18.760;2023-02-15T15:56:31;98752.52;;;4.96;75.22
75513;BME280;64090;49.770;18.760;2023-02-15T15:59:35;98755.19;;;4.84;75.69
75513;BME280;64090;49.770;18.760;2023-02-15T16:02:50;98751.42;;;4.73;75.84
75513;BME280;64090;49.770;18.760;2023-02-15T16:05:55;98746.38;;;4.60;76.20
75513;BME280;64090;49.770;18.760;2023-02-15T16:09:20;98750.05;;;4.50;76.63
75513;BME280;64090;49.770;18.760;2023-02-15T16:12:33;98749.07;;;4.40;76.95
75513;BME280;64090;49.770;18.760;2023-02-15T16:15:56;98754.67;;;4.28;77.21
75513;BME280;64090;49.770;18.760;2023-02-15T16:19:00;98753.88;;;4.18;77.33
75513;BME280;64090;49.770;18.760;2023-02-15T16:22:04;98756.90;;;4.08;77.56
75513;BME280;64090;49.770;18.760;2023-02-15T16:25:34;98757.77;;;4.00;78.20
75513;BME280;64090;49.770;18.760;2023-02-15T16:28:38;98757.98;;;3.92;78.39
75513;BME280;64090;49.770;18.760;2023-02-15T16:31:42;98754.06;;;3.81;78.79
75513;BME280;64090;49.770;18.760;2023-02-15T16:34:57;98756.95;;;3.68;79.21
75513;BME280;64090;49.770;18.760;2023-02-15T16:38:01;98757.13;;;3.56;79.98
75513;BME280;64090;49.770;18.760;2023-02-15T16:41:05;98754.40;;;3.51;80.54
75513;BME280;64090;49.770;18.760;2023-02-15T16:44:18;98757.67;;;3.46;81.11
75513;BME280;64090;49.770;18.760;2023-02-15T16:47:27;98759.13;;;3.41;81.24
75513;BME280;64090;49.770;18.760;2023-02-15T16:50:36;98761.02;;;3.37;81.51
75513;BME280;64090;49.770;18.760;2023-02-15T16:53:40;98759.11;;;3.34;81.84
75513;BME280;64090;49.770;18.760;2023-02-15T16:56:44;98759.59;;;3.26;82.12
75513;BME280;64090;49.770;18.760;2023-02-15T16:59:49;98761.92;;;3.19;82.29
75513;BME280;64090;49.770;18.760;2023-02-15T17:02:59;98767.52;;;3.13;81.98
75513;BME280;64090;49.770;18.760;2023-02-15T17:06:03;98765.10;;;3.07;81.40
75513;BME280;64090;49.770;18.760;2023-02-15T17:09:14;98767.61;;;2.98;81.51
75513;BME280;64090;49.770;18.760;2023-02-15T17:12:43;98765.39;;;2.89;81.43
75513;BME280;64090;49.770;18.760;2023-02-15T17:19:09;98758.41;;;2.72;81.30
75513;BME280;64090;49.770;18.760;2023-02-15T17:22:24;98760.09;;;2.63;81.88
75513;BME280;64090;49.770;18.760;2023-02-15T17:25:38;98760.61;;;2.52;82.47
75513;BME280;64090;49.770;18.760;2023-02-15T17:28:45;98760.96;;;2.42;83.28
75513;BME280;64090;49.770;18.760;2023-02-15T17:31:51;98761.55;;;2.30;81.92
75513;BME280;64090;49.770;18.760;2023-02-15T17:35:16;98761.36;;;2.20;82.16
75513;BME280;64090;49.770;18.760;2023-02-15T17:38:21;98757.34;;;2.14;82.18
75513;BME280;64090;49.770;18.760;2023-02-15T17:41:25;98755.16;;;2.08;82.59
75513;BME280;64090;49.770;18.760;2023-02-15T17:44:28;98755.63;;;2.01;83.48
75513;BME280;64090;49.770;18.760;2023-02-15T17:47:31;98756.05;;;1.93;82.51
75513;BME280;64090;49.770;18.760;2023-02-15T17:50:35;98752.05;;;1.84;81.88
75513;BME280;64090;49.770;18.760;2023-02-15T17:53:38;98751.88;;;1.74;82.09
75513;BME280;64090;49.770;18.760;2023-02-15T17:56:41;98747.48;;;1.63;84.37
75513;BME280;64090;49.770;18.760;2023-02-15T17:59:44;98746.83;;;1.54;83.30
75513;BME280;64090;49.770;18.760;2023-02-15T18:03:10;98744.96;;;1.44;85.82
75513;BME280;64090;49.770;18.760;2023-02-15T18:06:33;98743.02;;;1.38;84.82
75513;BME280;64090;49.770;18.760;2023-02-15T18:09:55;98737.33;;;1.31;84.74
75513;BME280;64090;49.770;18.760;2023-02-15T18:13:17;98740.02;;;1.23;83.68
75513;BME280;64090;49.770;18.760;2023-02-15T18:16:24;98742.27;;;1.15;85.15
75513;BME280;64090;49.770;18.760;2023-02-15T18:19:31;98736.30;;;1.06;84.93
75513;BME280;64090;49.770;18.760;2023-02-15T18:22:35;98732.45;;;0.97;85.15
75513;BME280;64090;49.770;18.760;2023-02-15T18:25:38;98732.59;;;0.91;88.18
75513;BME280;64090;49.770;18.760;2023-02-15T18:28:41;98731.52;;;0.89;86.27
75513;BME280;64090;49.770;18.760;2023-02-15T18:31:47;98725.92;;;0.85;87.10
75513;BME280;64090;49.770;18.760;2023-02-15T18:34:55;98727.13;;;0.84;85.97
75513;BME280;64090;49.770;18.760;2023-02-15T18:38:00;98726.20;;;0.83;87.45
75513;BME280;64090;49.770;18.760;2023-02-15T18:41:04;98729.23;;;0.80;87.81
75513;BME280;64090;49.770;18.760;2023-02-15T18:44:10;98725.02;;;0.76;86.44
75513;BME280;64090;49.770;18.760;2023-02-15T18:47:14;98724.90;;;0.71;87.15
75513;BME280;64090;49.770;18.760;2023-02-15T18:50:18;98726.20;;;0.67;87.20
75513;BME280;64090;49.770;18.760;2023-02-15T18:53:22;98728.42;;;0.63;86.20
75513;BME280;64090;49.770;18.760;2023-02-15T18:56:25;98729.88;;;0.58;86.53
75513;BME280;64090;49.770;18.760;2023-02-15T18:59:29;98728.98;;;0.52;85.70
75513;BME280;64090;49.770;18.760;2023-02-15T19:02:33;98728.27;;;0.45;85.67
75513;BME280;64090;49.770;18.760;2023-02-15T19:05:36;98727.48;;;0.39;86.14
75513;BME280;64090;49.770;18.760;2023-02-15T19:08:39;98725.41;;;0.34;86.44
75513;BME280;64090;49.770;18.760;2023-02-15T19:11:50;98722.70;;;0.28;86.20
75513;BME280;64090;49.770;18.760;2023-02-15T19:14:54;98728.94;;;0.22;86.80
75513;BME280;64090;49.770;18.760;2023-02-15T19:17:58;98724.98;;;0.16;86.23
75513;BME280;64090;49.770;18.760;2023-02-15T19:21:01;98722.95;;;0.11;86.42
75513;BME280;64090;49.770;18.760;2023-02-15T19:24:09;98722.06;;;0.07;86.49
75513;BME280;64090;49.770;18.760;2023-02-15T19:27:23;98720.27;;;0.00;88.03
75513;BME280;64090;49.770;18.760;2023-02-15T19:30:29;98715.38;;;-0.02;88.18
75513;BME280;64090;49.770;18.760;2023-02-15T19:33:33;98716.59;;;-0.07;89.29
75513;BME280;64090;49.770;18.760;2023-02-15T19:36:44;98720.31;;;-0.12;89.89
75513;BME280;64090;49.770;18.760;2023-02-15T19:39:48;98724.80;;;-0.18;90.44
75513;BME280;64090;49.770;18.760;2023-02-15T19:42:52;98720.97;;;-0.26;90.64
75513;BME280;64090;49.770;18.760;2023-02-15T19:45:55;98718.41;;;-0.34;91.04
75513;BME280;64090;49.770;18.760;2023-02-15T19:48:58;98715.05;;;-0.40;91.24
75513;BME280;64090;49.770;18.760;2023-02-15T19:52:02;98716.90;;;-0.47;92.23
75513;BME280;64090;49.770;18.760;2023-02-15T19:55:05;98716.96;;;-0.50;91.80
75513;BME280;64090;49.770;18.760;2023-02-15T19:58:19;98717.63;;;-0.49;91.22
75513;BME280;64090;49.770;18.760;2023-02-15T20:01:37;98712.85;;;-0.48;90.96
75513;BME280;64090;49.770;18.760;2023-02-15T20:04:43;98713.45;;;-0.47;90.14
75513;BME280;64090;49.770;18.760;2023-02-15T20:07:48;98708.77;;;-0.49;90.13
75513;BME280;64090;49.770;18.760;2023-02-15T20:11:12;98703.32;;;-0.54;90.00
75513;BME280;64090;49.770;18.760;2023-02-15T20:14:18;98703.05;;;-0.59;89.71
75513;BME280;64090;49.770;18.760;2023-02-15T20:17:23;98702.35;;;-0.67;90.36
75513;BME280;64090;49.770;18.760;2023-02-15T20:20:51;98700.41;;;-0.71;89.79
75513;BME280;64090;49.770;18.760;2023-02-15T20:23:53;98700.26;;;-0.76;89.33
75513;BME280;64090;49.770;18.760;2023-02-15T20:26:58;98696.68;;;-0.82;89.61
75513;BME280;64090;49.770;18.760;2023-02-15T20:30:02;98694.92;;;-0.87;89.74
75513;BME280;64090;49.770;18.760;2023-02-15T20:33:06;98692.55;;;-0.93;89.55
75513;BME280;64090;49.770;18.760;2023-02-15T20:36:18;98684.77;;;-0.98;89.61
75513;BME280;64090;49.770;18.760;2023-02-15T20:39:21;98678.69;;;-1.03;89.44
75513;BME280;64090;49.770;18.760;2023-02-15T20:42:25;98677.45;;;-1.08;89.58
75513;BME280;64090;49.770;18.760;2023-02-15T20:45:31;98666.52;;;-1.11;89.83
75513;BME280;64090;49.770;18.760;2023-02-15T20:48:35;98666.88;;;-1.14;90.05
75513;BME280;64090;49.770;18.760;2023-02-15T20:51:38;98663.19;;;-1.13;90.19
75513;BME280;64090;49.770;18.760;2023-02-15T20:54:45;98661.41;;;-1.12;90.75
75513;BME280;64090;49.770;18.760;2023-02-15T20:57:49;98652.61;;;-1.13;90.90
75513;BME280;64090;49.770;18.760;2023-02-15T21:00:54;98643.90;;;-1.13;90.34
75513;BME280;64090;49.770;18.760;2023-02-15T21:03:57;98637.16;;;-1.14;90.30
75513;BME280;64090;49.770;18.760;2023-02-15T21:07:01;98634.34;;;-1.16;90.37
75513;BME280;64090;49.770;18.760;2023-02-15T21:10:05;98635.16;;;-1.15;90.89
75513;BME280;64090;49.770;18.760;2023-02-15T21:13:23;98635.27;;;-1.12;90.49
75513;BME280;64090;49.770;18.760;2023-02-15T21:16:27;98631.80;;;-1.09;90.60
75513;BME280;64090;49.770;18.760;2023-02-15T21:19:30;98634.70;;;-1.08;90.82
75513;BME280;64090;49.770;18.760;2023-02-15T21:22:34;98628.63;;;-1.09;90.37
75513;BME280;64090;49.770;18.760;2023-02-15T21:25:37;98626.90;;;-1.11;90.36
75513;BME280;64090;49.770;18.760;2023-02-15T21:28:40;98628.81;;;-1.14;90.47
75513;BME280;64090;49.770;18.760;2023-02-15T21:31:44;98632.30;;;-1.21;90.94
75513;BME280;64090;49.770;18.760;2023-02-15T21:34:47;98633.89;;;-1.24;90.45
75513;BME280;64090;49.770;18.760;2023-02-15T21:37:51;98638.34;;;-1.28;91.39
75513;BME280;64090;49.770;18.760;2023-02-15T21:40:55;98634.73;;;-1.34;91.76
75513;BME280;64090;49.770;18.760;2023-02-15T21:44:20;98637.42;;;-1.35;91.92
75513;BME280;64090;49.770;18.760;2023-02-15T21:47:41;98636.73;;;-1.35;91.43
75513;BME280;64090;49.770;18.760;2023-02-15T21:50:54;98638.11;;;-1.35;91.01
75513;BME280;64090;49.770;18.760;2023-02-15T21:54:17;98638.90;;;-1.31;90.86
75513;BME280;64090;49.770;18.760;2023-02-15T21:57:21;98641.94;;;-1.30;90.51
75513;BME280;64090;49.770;18.760;2023-02-15T22:00:25;98636.13;;;-1.28;90.46